Time;durP1;ratioP1;P1;durP2;ratioP2;P2;SDS_P1;SDS_P2;PMS_P1;PMS_P2;Temp;Humidity;BMP_temperature;BMP_pressure;BME280_temperature;BME280_humidity;BME280_pressure;Samples;Min_cycle;Max_cycle;Signal;HPM_P1;HPM_P2
2022/04/04 00:00:12;;;;;;;0.60;0.50;;;-3.10;1.40;;;-2.81;100.00;95654.63;647316;212;31565;-75
2022/04/04 00:02:54;;;;;;;0.88;0.88;;;-3.30;1.40;;;-2.93;100.00;95650.18;648284;212;31549;-75
2022/04/04 00:05:35;;;;;;;0.98;0.52;;;-3.30;1.40;;;-2.99;100.00;95642.59;646703;212;31829;-75
2022/04/04 00:08:17;;;;;;;1.00;0.90;;;-3.30;1.40;;;-2.91;100.00;95646.44;636611;216;31641;-75
2022/04/04 00:10:59;;;;;;;0.70;0.70;;;-3.30;1.40;;;-3.01;100.00;95645.98;646932;216;31605;-75
2022/04/04 00:13:43;;;;;;;0.98;0.98;;;-3.40;1.40;;;-3.01;100.00;95638.17;647751;212;31708;-75
2022/04/04 00:16:25;;;;;;;0.70;0.70;;;-3.30;1.40;;;-3.02;100.00;95633.21;647817;216;31528;-75
2022/04/04 00:19:07;;;;;;;2.90;1.50;;;-3.30;1.40;;;-3.05;100.00;95628.81;647147;212;31551;-75
2022/04/04 00:21:49;;;;;;;1.50;0.80;;;-3.30;1.40;;;-3.10;100.00;95623.41;645683;216;31517;-75
2022/04/04 00:24:30;;;;;;;1.85;1.30;;;-3.40;1.40;;;-3.05;100.00;95623.53;647293;212;31485;-75
2022/04/04 00:29:46;;;;;;;0.80;0.80;;;-3.30;1.40;;;-3.15;100.00;95624.89;646676;216;31694;-75
2022/04/04 00:32:28;;;;;;;1.10;1.00;;;-3.50;1.40;;;-3.18;100.00;95619.61;647193;216;31526;-74
2022/04/04 00:35:51;;;;;;;0.80;0.80;;;-3.60;1.40;;;-3.29;100.00;95617.73;647273;213;31695;-75
2022/04/04 00:38:33;;;;;;;5.32;1.10;;;-3.60;1.40;;;-3.24;100.00;95614.34;646715;216;31523;-75
2022/04/04 00:41:15;;;;;;;0.90;0.90;;;-3.60;1.40;;;-3.25;100.00;95603.55;646444;212;31567;-75
2022/04/04 00:43:57;;;;;;;0.60;0.60;;;-3.60;1.40;;;-3.29;100.00;95610.41;619255;222;31869;-74
2022/04/04 00:46:41;;;;;;;3.15;1.30;;;-3.70;1.40;;;-3.34;100.00;95610.65;646578;216;31535;-75
2022/04/04 00:49:22;;;;;;;1.37;1.15;;;-3.60;1.40;;;-3.36;100.00;95604.09;646730;212;31511;-75
2022/04/04 00:52:05;;;;;;;0.70;0.70;;;-3.70;1.40;;;-3.41;100.00;95605.08;646579;212;32702;-75
2022/04/04 00:54:46;;;;;;;1.20;0.40;;;-3.70;1.40;;;-3.43;100.00;95599.72;647021;212;42356;-75
2022/04/04 00:57:28;;;;;;;1.10;1.10;;;-3.70;1.40;;;-3.50;100.00;95597.05;653152;212;23473;-75
2022/04/04 01:00:11;;;;;;;0.85;0.80;;;-3.80;1.40;;;-3.56;100.00;95590.95;647309;212;31819;-75
2022/04/04 01:02:55;;;;;;;2.33;0.80;;;-4.00;1.40;;;-3.69;100.00;95590.50;620766;226;32103;-75
2022/04/04 01:05:37;;;;;;;1.60;0.65;;;-4.20;1.40;;;-3.73;100.00;95591.49;646635;212;31537;-75
2022/04/04 01:08:19;;;;;;;1.80;1.35;;;-4.10;1.40;;;-3.77;100.00;95588.70;647169;216;31605;-75
2022/04/04 01:11:00;;;;;;;1.20;0.80;;;-4.20;1.40;;;-3.74;100.00;95583.52;647026;212;31745;-74
2022/04/04 01:13:46;;;;;;;1.00;0.80;;;-4.10;1.40;;;-3.79;100.00;95575.48;646635;212;31503;-74
2022/04/04 01:16:27;;;;;;;1.30;1.00;;;-4.10;1.40;;;-3.80;100.00;95575.78;648079;212;31573;-75
2022/04/04 01:19:13;;;;;;;1.70;1.10;;;-4.00;1.40;;;-3.74;100.00;95575.08;646475;216;42179;-75
2022/04/04 01:21:54;;;;;;;1.90;1.00;;;-4.10;1.40;;;-3.85;100.00;95574.77;647638;213;42172;-75
2022/04/04 01:24:38;;;;;;;1.40;0.70;;;-4.30;1.40;;;-3.90;100.00;95578.04;647393;216;31588;-75
2022/04/04 01:27:23;;;;;;;1.70;1.00;;;-4.30;1.40;;;-3.95;100.00;95578.14;646920;216;31621;-74
2022/04/04 01:30:05;;;;;;;1.50;0.70;;;-4.30;1.40;;;-4.11;100.00;95582.27;647234;212;42141;-75
2022/04/04 01:32:49;;;;;;;0.70;0.70;;;-4.50;1.40;;;-4.03;100.00;95582.67;647536;216;32151;-73
2022/04/04 01:35:52;;;;;;;0.60;0.52;;;-4.40;1.40;;;-4.03;100.00;95579.49;647755;216;31546;-75
2022/04/04 01:38:32;;;;;;;1.70;1.10;;;-4.40;1.40;;;-4.14;100.00;95575.27;647092;216;31566;-75
2022/04/04 01:41:14;;;;;;;1.00;0.80;;;-4.50;1.40;;;-4.05;100.00;95573.37;646589;216;32048;-75
2022/04/04 01:43:56;;;;;;;0.68;0.68;;;-4.30;1.40;;;-4.01;100.00;95568.36;649284;212;31526;-75
2022/04/04 01:46:38;;;;;;;1.75;0.82;;;-4.30;1.40;;;-4.14;100.00;95567.88;647101;216;31505;-74
2022/04/04 01:49:23;;;;;;;0.98;0.80;;;-4.40;1.40;;;-4.04;100.00;95561.36;646279;212;32168;-75
2022/04/04 01:52:05;;;;;;;1.55;1.10;;;-4.20;1.40;;;-4.00;100.00;95559.91;619959;225;42533;-76
2022/04/04 01:54:47;;;;;;;1.30;1.20;;;-4.30;1.40;;;-4.09;100.00;95559.08;618741;222;31870;-75
2022/04/04 01:57:29;;;;;;;1.10;1.00;;;-4.40;1.40;;;-4.17;100.00;95561.19;647147;216;31596;-74
2022/04/04 02:00:13;;;;;;;1.73;1.33;;;-4.60;1.40;;;-4.29;100.00;95559.45;646691;212;31522;-75
2022/04/04 02:02:58;;;;;;;0.70;0.70;;;-4.70;1.40;;;-4.30;100.00;95560.95;619046;222;31882;-75
2022/04/04 02:05:40;;;;;;;0.65;0.65;;;-4.60;1.40;;;-4.33;100.00;95559.53;647705;216;32360;-75
2022/04/04 02:08:21;;;;;;;0.85;0.85;;;-4.70;1.40;;;-4.32;100.00;95559.30;636262;212;31706;-75
2022/04/04 02:11:04;;;;;;;1.50;0.82;;;-4.70;1.40;;;-4.25;100.00;95558.09;648399;212;42744;-75
2022/04/04 02:13:45;;;;;;;1.50;1.40;;;-4.60;1.40;;;-4.23;100.00;95555.51;647141;212;31594;-75
2022/04/04 02:16:26;;;;;;;6.30;0.80;;;-4.40;1.40;;;-4.20;100.00;95551.64;647270;216;31536;-75
2022/04/04 02:19:09;;;;;;;1.42;1.10;;;-4.40;1.40;;;-4.13;100.00;95546.78;646868;212;31518;-75
2022/04/04 02:21:50;;;;;;;1.62;1.52;;;-4.20;1.40;;;-4.22;100.00;95545.53;649088;216;42134;-74
2022/04/04 02:24:32;;;;;;;4.20;1.00;;;-4.40;1.40;;;-4.22;100.00;95543.59;647854;216;31528;-76
2022/04/04 02:27:13;;;;;;;2.87;1.52;;;-4.40;1.40;;;-4.24;100.00;95547.95;646910;216;31586;-75
2022/04/04 02:29:58;;;;;;;1.60;0.80;;;-4.40;1.40;;;-4.18;100.00;95543.34;646564;212;31616;-74
2022/04/04 02:32:40;;;;;;;1.00;0.75;;;-4.30;1.40;;;-4.13;100.00;95544.81;621132;226;31967;-75
2022/04/04 02:35:51;;;;;;;1.35;1.25;;;-4.30;1.40;;;-4.15;100.00;95543.68;647677;216;31567;-75
2022/04/04 02:38:33;;;;;;;1.30;1.20;;;-4.20;1.40;;;-4.16;100.00;95549.87;647476;212;32247;-75
2022/04/04 02:41:15;;;;;;;1.80;1.10;;;-4.40;1.40;;;-4.19;100.00;95544.72;646330;216;33084;-75
2022/04/04 02:43:56;;;;;;;0.77;0.77;;;-4.40;1.40;;;-4.20;100.00;95540.59;619597;226;32417;-75
2022/04/04 02:46:40;;;;;;;1.00;0.90;;;-4.30;1.40;;;-4.17;100.00;95534.92;646950;216;31500;-75
2022/04/04 02:49:23;;;;;;;1.30;0.93;;;-4.30;1.40;;;-4.21;100.00;95532.95;646864;216;42357;-75
2022/04/04 02:52:06;;;;;;;2.10;0.80;;;-4.40;1.40;;;-4.23;100.00;95526.52;647859;216;42167;-75
2022/04/04 02:54:51;;;;;;;2.00;1.40;;;-4.30;1.40;;;-4.22;100.00;95525.66;645637;213;31971;-75
2022/04/04 02:57:32;;;;;;;1.60;0.90;;;-4.30;1.40;;;-4.22;100.00;95528.51;647958;216;32149;-75
2022/04/04 03:00:17;;;;;;;0.90;0.90;;;-4.30;1.40;;;-4.22;100.00;95525.11;619361;226;32306;-75
2022/04/04 03:02:57;;;;;;;2.80;1.10;;;-4.30;1.40;;;-4.28;100.00;95527.22;619872;226;31919;-75
2022/04/04 03:05:39;;;;;;;1.20;1.00;;;-4.40;1.40;;;-4.29;100.00;95533.35;647431;216;31562;-76
2022/04/04 03:08:24;;;;;;;1.00;1.00;;;-4.40;1.40;;;-4.33;100.00;95528.58;636259;212;31839;-76
2022/04/04 03:11:05;;;;;;;1.52;1.17;;;-4.40;1.40;;;-4.34;100.00;95525.19;647520;212;31600;-75
2022/04/04 03:13:47;;;;;;;2.00;1.23;;;-4.50;1.40;;;-4.39;100.00;95522.61;646363;212;42154;-75
2022/04/04 03:16:29;;;;;;;1.30;0.80;;;-4.40;1.40;;;-4.42;100.00;95520.25;647586;212;31568;-75
2022/04/04 03:19:11;;;;;;;1.90;1.00;;;-4.50;1.40;;;-4.40;100.00;95521.70;647217;212;31674;-75
2022/04/04 03:21:54;;;;;;;1.05;0.75;;;-4.50;1.40;;;-4.40;100.00;95523.12;646564;212;31794;-75
2022/04/04 03:24:34;;;;;;;0.98;0.98;;;-4.60;1.40;;;-4.48;100.00;95523.43;648267;216;42169;-74
2022/04/04 03:27:16;;;;;;;1.10;1.10;;;-4.70;1.40;;;-4.52;100.00;95524.84;647403;216;31909;-75
2022/04/04 03:29:57;;;;;;;0.60;0.60;;;-4.70;1.40;;;-4.54;100.00;95518.50;646314;212;31523;-75
2022/04/04 03:32:39;;;;;;;1.62;1.50;;;-4.60;1.40;;;-4.60;100.00;95520.41;648503;216;31573;-76
2022/04/04 03:35:51;;;;;;;1.58;0.80;;;-4.60;1.40;;;-4.68;100.00;95522.95;647302;216;31852;-75
2022/04/04 03:38:35;;;;;;;1.50;1.00;;;-4.80;1.40;;;-4.70;100.00;95517.57;619807;226;32119;-75
2022/04/04 03:41:17;;;;;;;1.50;1.40;;;-4.90;1.40;;;-4.82;100.00;95519.30;620785;226;31864;-75
2022/04/04 03:43:59;;;;;;;2.90;1.60;;;-5.00;1.40;;;-4.86;100.00;95513.05;620186;226;42682;-75
2022/04/04 03:46:41;;;;;;;2.72;0.88;;;-5.00;1.40;;;-4.79;100.00;95510.38;647654;216;31589;-74
2022/04/04 03:49:22;;;;;;;1.58;1.15;;;-4.90;1.40;;;-4.82;100.00;95514.86;648331;216;42341;-75
2022/04/04 03:52:04;;;;;;;0.85;0.70;;;-4.90;1.40;;;-4.82;100.00;95519.72;619367;226;31847;-75
2022/04/04 03:54:46;;;;;;;1.10;1.10;;;-5.00;1.40;;;-4.85;100.00;95518.53;622019;226;31925;-75
2022/04/04 03:57:28;;;;;;;2.30;1.08;;;-5.00;1.40;;;-4.86;100.00;95517.48;648774;212;31657;-75
2022/04/04 04:00:13;;;;;;;0.73;0.73;;;-5.20;1.40;;;-4.95;100.00;95518.63;646391;216;32389;-75
2022/04/04 04:02:55;;;;;;;0.60;0.40;;;-5.30;1.40;;;-4.98;100.00;95525.23;619922;226;31848;-75
2022/04/04 04:05:36;;;;;;;0.90;0.55;;;-5.10;1.40;;;-4.94;100.00;95523.35;646896;216;31608;-75
2022/04/04 04:08:18;;;;;;;1.60;0.70;;;-5.10;1.40;;;-4.99;100.00;95521.94;611596;226;32015;-76
2022/04/04 04:11:00;;;;;;;0.80;0.80;;;-5.20;1.40;;;-4.97;100.00;95527.36;646486;216;31537;-76
2022/04/04 04:13:41;;;;;;;0.80;0.70;;;-5.10;1.40;;;-5.02;100.00;95523.66;619432;222;31996;-75
2022/04/04 04:16:29;;;;;;;1.40;1.10;;;-5.20;1.40;;;-5.13;100.00;95522.46;630916;222;31725;-77
2022/04/04 04:22:04;;;;;;;1.10;0.70;;;-5.30;1.40;;;-5.16;100.00;95526.24;648074;212;31457;-75
2022/04/04 04:24:53;;;;;;;0.90;0.80;;;-5.20;1.40;;;-5.17;100.00;95519.27;649392;216;42108;-76
2022/04/04 04:27:42;;;;;;;0.80;0.60;;;-5.20;1.40;;;-5.18;100.00;95524.25;646443;216;42230;-76
2022/04/04 04:30:23;;;;;;;0.85;0.85;;;-5.20;1.40;;;-5.10;100.00;95516.69;646027;216;42169;-76
2022/04/04 04:35:53;;;;;;;0.50;0.50;;;-5.10;1.40;;;-5.13;100.00;95513.36;648415;212;31528;-75
2022/04/04 04:38:37;;;;;;;1.90;1.30;;;-5.20;1.40;;;-5.22;100.00;95513.30;651262;216;31541;-75
2022/04/04 04:41:23;;;;;;;2.90;0.90;;;-5.30;1.40;;;-5.17;100.00;95514.48;646696;216;31524;-74
2022/04/04 04:44:09;;;;;;;1.40;1.00;;;-5.20;1.40;;;-5.12;100.00;95516.34;620700;226;31803;-75
2022/04/04 04:46:54;;;;;;;2.30;1.20;;;-5.20;1.40;;;-5.14;100.00;95513.59;648647;216;31553;-75
2022/04/04 04:49:36;;;;;;;1.33;0.80;;;-5.20;1.40;;;-5.15;100.00;95516.51;646161;209;31984;-76
2022/04/04 05:05:55;;;;;;;1.52;1.00;;;-5.30;1.40;;;-5.05;100.00;95513.18;647090;212;31524;-74
2022/04/04 05:08:40;;;;;;;1.20;0.82;;;-5.20;1.40;;;-5.11;100.00;95513.07;648075;212;42179;-75
2022/04/04 05:11:28;;;;;;;1.75;1.23;;;-5.20;1.40;;;-5.07;100.00;95511.63;648358;212;42156;-75
2022/04/04 05:14:15;;;;;;;1.10;0.80;;;-5.10;1.40;;;-4.99;100.00;95508.75;620941;222;31928;-74
2022/04/04 05:16:59;;;;;;;1.80;0.80;;;-5.00;1.40;;;-4.94;100.00;95510.89;647261;212;31496;-74
2022/04/04 05:19:42;;;;;;;1.15;1.05;;;-5.00;1.40;;;-4.89;100.00;95509.50;650743;214;31512;-75
2022/04/04 05:22:28;;;;;;;1.50;1.30;;;-4.90;1.40;;;-4.80;100.00;95513.81;620553;222;32139;-75
2022/04/04 05:25:14;;;;;;;1.00;0.90;;;-4.80;1.40;;;-4.73;100.00;95515.58;647658;212;31585;-77
2022/04/04 05:28:01;;;;;;;1.70;1.10;;;-4.80;1.40;;;-4.63;100.00;95514.42;621308;222;31850;-76
2022/04/04 05:30:49;;;;;;;1.17;1.08;;;-4.80;1.40;;;-4.53;100.00;95515.55;645933;212;31553;-76
2022/04/04 05:35:53;;;;;;;1.10;1.00;;;-4.60;1.40;;;-4.36;100.00;95519.26;650021;212;31525;-75
2022/04/04 05:38:37;;;;;;;9.88;1.70;;;-4.50;1.40;;;-4.26;100.00;95524.34;628075;221;31667;-76
2022/04/04 05:41:23;;;;;;;0.80;0.80;;;-4.40;1.40;;;-4.23;100.00;95525.13;637560;221;31675;-76
2022/04/04 05:44:12;;;;;;;1.50;1.00;;;-4.40;1.40;;;-4.12;100.00;95533.63;621514;222;32500;-76
2022/04/04 05:46:56;;;;;;;1.50;1.10;;;-4.30;1.40;;;-4.05;100.00;95525.06;648628;216;42147;-76
2022/04/04 05:49:44;;;;;;;1.10;1.02;;;-4.20;1.40;;;-3.95;100.00;95526.67;631813;221;42282;-77
2022/04/04 05:52:35;;;;;;;2.37;1.37;;;-4.10;1.40;;;-3.85;100.00;95530.95;649250;216;31545;-77
2022/04/04 05:55:18;;;;;;;1.50;1.30;;;-4.00;1.40;;;-3.78;100.00;95530.45;647474;216;42176;-76
2022/04/04 05:57:59;;;;;;;0.80;0.70;;;-3.90;1.40;;;-3.69;100.00;95530.70;647502;216;31519;-75
2022/04/04 06:00:41;;;;;;;1.30;1.20;;;-3.80;1.40;;;-3.57;100.00;95533.42;647130;216;31555;-75
2022/04/04 06:03:23;;;;;;;1.40;1.30;;;-3.70;1.40;;;-3.45;100.00;95537.55;647842;216;31583;-76
2022/04/04 06:06:04;;;;;;;2.20;1.80;;;-3.50;1.40;;;-3.34;100.00;95529.66;647555;212;31466;-75
2022/04/04 06:08:50;;;;;;;2.08;1.30;;;-3.40;1.40;;;-3.22;100.00;95533.19;650025;216;31553;-75
2022/04/04 06:11:31;;;;;;;1.70;1.60;;;-3.30;1.40;;;-3.10;100.00;95538.73;648296;216;31541;-75
2022/04/04 06:14:16;;;;;;;1.37;1.12;;;-3.20;1.40;;;-2.97;100.00;95534.49;647996;212;31587;-76
2022/04/04 06:17:09;;;;;;;1.20;1.10;;;-3.10;1.40;;;-2.86;100.00;95534.14;621033;222;31895;-75
2022/04/04 06:19:55;;;;;;;3.20;1.77;;;-2.90;1.40;;;-2.72;100.00;95535.09;646182;212;31666;-75
2022/04/04 06:22:35;;;;;;;1.80;0.90;;;-2.80;1.40;;;-2.56;100.00;95538.34;647288;212;31530;-76
2022/04/04 06:25:21;;;;;;;0.90;0.68;;;-2.60;1.40;;;-2.41;100.00;95534.52;646927;216;31610;-76
2022/04/04 06:28:00;;;;;;;0.85;0.85;;;-2.50;1.40;;;-2.28;100.00;95539.56;646184;216;31537;-75
2022/04/04 06:30:43;;;;;;;1.95;1.40;;;-2.40;1.40;;;-2.17;100.00;95540.27;646651;216;31537;-75
2022/04/04 06:35:57;;;;;;;2.40;1.50;;;-2.10;1.40;;;-1.89;100.00;95541.13;646913;216;31573;-75
2022/04/04 06:38:45;;;;;;;1.80;1.70;;;-2.00;1.40;;;-1.82;100.00;95541.23;647667;216;31562;-76
2022/04/04 06:41:27;;;;;;;2.03;1.87;;;-1.90;1.40;;;-1.72;100.00;95539.96;646321;212;31591;-74
2022/04/04 06:44:08;;;;;;;1.77;1.37;;;-1.80;1.40;;;-1.69;100.00;95537.49;647125;216;32006;-76
2022/04/04 06:46:53;;;;;;;4.40;2.00;;;-1.80;1.40;;;-1.56;100.00;95538.70;647553;212;31517;-76
2022/04/04 06:49:35;;;;;;;1.33;1.23;;;-1.70;1.40;;;-1.53;100.00;95538.80;633925;217;31636;-76
2022/04/04 06:52:20;;;;;;;1.20;1.05;;;-1.60;1.40;;;-1.42;100.00;95536.58;646367;212;31564;-75
2022/04/04 06:55:02;;;;;;;1.45;1.35;;;-1.50;1.40;;;-1.33;100.00;95540.76;646718;212;31611;-76
2022/04/04 06:57:43;;;;;;;1.50;1.40;;;-1.40;1.40;;;-1.27;100.00;95538.20;618017;226;32082;-75
2022/04/04 07:00:25;;;;;;;4.20;1.70;;;-1.40;1.40;;;-1.28;100.00;95539.09;646997;212;31536;-75
2022/04/04 07:03:08;;;;;;;1.80;1.00;;;-1.40;1.40;;;-1.17;100.00;95543.09;647540;216;31573;-76
2022/04/04 07:05:48;;;;;;;1.62;1.20;;;-1.30;1.40;;;-1.02;100.00;95539.33;620362;226;31832;-76
2022/04/04 07:08:30;;;;;;;1.70;1.60;;;-1.10;1.40;;;-0.91;100.00;95535.63;647320;216;31659;-75
2022/04/04 07:11:13;;;;;;;1.60;1.10;;;-0.90;1.40;;;-0.71;100.00;95537.81;618067;222;32288;-76
2022/04/04 07:13:53;;;;;;;1.60;1.50;;;-0.70;1.40;;;-0.54;100.00;95546.05;647385;216;31678;-76
2022/04/04 07:16:35;;;;;;;2.50;1.40;;;-0.50;1.40;;;-0.27;100.00;95540.80;646699;216;31533;-76
2022/04/04 07:19:17;;;;;;;3.12;1.60;;;-0.30;1.40;;;-0.27;100.00;95536.12;647618;216;31534;-75
2022/04/04 07:21:58;;;;;;;2.30;1.00;;;-0.30;1.40;;;-0.13;100.00;95540.84;645796;212;31629;-76
2022/04/04 07:24:40;;;;;;;2.50;1.45;;;-0.10;1.40;;;0.03;100.00;95538.64;618557;226;31969;-75
2022/04/04 07:27:23;;;;;;;1.25;1.20;;;0.00;1.40;;;0.06;100.00;95538.66;646319;212;31640;-76
2022/04/04 07:30:05;;;;;;;2.40;1.90;;;0.00;1.40;;;0.13;100.00;95524.56;647924;212;31648;-77
2022/04/04 07:32:46;;;;;;;1.10;1.00;;;0.10;1.40;;;0.26;100.00;95525.80;647564;216;31714;-77
2022/04/04 07:35:52;;;;;;;1.45;1.35;;;0.10;1.40;;;0.27;100.00;95526.14;648475;216;31617;-77
2022/04/04 07:38:34;;;;;;;2.50;1.50;;;0.20;1.40;;;0.42;100.00;95524.94;646598;216;32200;-78
2022/04/04 07:41:15;;;;;;;1.15;1.15;;;0.40;1.40;;;0.47;100.00;95523.59;647970;216;31613;-77
2022/04/04 07:44:00;;;;;;;1.42;0.80;;;0.30;1.40;;;0.45;100.00;95530.33;647852;216;31685;-78
2022/04/04 07:49:28;;;;;;;1.50;1.20;;;0.30;1.40;;;0.55;100.00;95536.75;619805;226;32074;-78
2022/04/04 07:52:10;;;;;;;1.35;1.15;;;0.50;1.40;;;0.75;100.00;95534.13;647457;212;31585;-78
2022/04/04 07:54:53;;;;;;;1.10;0.90;;;0.60;1.40;;;0.88;100.00;95530.48;647204;212;31550;-77
2022/04/04 07:57:39;;;;;;;1.12;1.10;;;0.60;1.40;;;0.89;100.00;95531.85;618840;226;31992;-78
2022/04/04 08:00:27;;;;;;;0.95;0.77;;;0.70;1.40;;;1.13;100.00;95530.41;646023;216;31509;-79
2022/04/04 08:03:15;;;;;;;2.22;0.98;;;1.00;1.40;;;1.19;100.00;95533.28;618063;226;32238;-75
2022/04/04 08:05:58;;;;;;;2.28;1.77;;;0.90;1.40;;;1.27;100.00;95523.27;647289;216;42139;-77
2022/04/04 08:08:40;;;;;;;1.80;1.30;;;1.10;1.40;;;1.31;100.00;95528.42;612082;222;42687;-78
2022/04/04 08:11:22;;;;;;;1.90;1.30;;;1.10;1.40;;;1.70;100.00;95525.98;646369;212;42144;-78
2022/04/04 08:14:13;;;;;;;1.62;1.08;;;1.50;1.40;;;1.73;94.10;95518.55;646314;212;42149;-76
2022/04/04 08:17:00;;;;;;;2.08;1.98;;;1.40;1.40;;;1.71;92.62;95517.13;646745;212;31553;-78
2022/04/04 08:19:42;;;;;;;1.50;1.40;;;1.30;1.40;;;1.69;91.05;95511.12;646581;216;31588;-76
2022/04/04 08:22:24;;;;;;;1.37;1.20;;;1.40;1.40;;;1.76;86.83;95508.86;648463;212;31556;-78
2022/04/04 08:25:11;;;;;;;2.40;1.33;;;1.50;1.40;;;1.99;86.70;95510.55;619232;226;31941;-77
2022/04/04 08:27:53;;;;;;;2.23;2.03;;;1.70;1.40;;;2.04;84.24;95506.50;647095;216;42159;-76
2022/04/04 08:30:35;;;;;;;1.12;1.02;;;1.70;1.40;;;2.04;83.06;95504.58;645209;216;31578;-75
2022/04/04 08:35:53;;;;;;;1.30;1.20;;;1.60;1.40;;;2.10;84.83;95498.75;620039;222;32278;-78
2022/04/04 08:38:38;;;;;;;1.90;1.10;;;1.90;1.40;;;2.09;82.84;95493.38;647852;212;31522;-77
2022/04/04 08:41:18;;;;;;;1.60;1.12;;;1.90;1.40;;;2.27;82.53;95500.30;646808;212;31544;-78
2022/04/04 08:44:09;;;;;;;1.73;1.62;;;2.00;1.40;;;2.12;81.08;95496.25;646631;216;31583;-75
2022/04/04 08:46:50;;;;;;;2.28;1.25;;;1.90;1.40;;;2.36;81.13;95494.98;646571;216;31573;-77
2022/04/04 08:49:32;;;;;;;1.75;1.65;;;2.10;1.40;;;2.52;81.27;95488.80;618924;222;31941;-75
2022/04/04 08:52:15;;;;;;;1.60;1.40;;;2.30;1.40;;;2.72;80.76;95491.81;646680;216;31546;-75
2022/04/04 08:55:02;;;;;;;1.60;1.50;;;2.60;1.40;;;2.73;82.88;95487.96;631834;217;31666;-78
2022/04/04 08:57:46;;;;;;;1.40;1.30;;;2.70;1.40;;;3.13;80.79;95488.61;645428;216;31532;-75
2022/04/04 09:00:36;;;;;;;1.12;0.90;;;2.90;1.40;;;3.20;79.91;95486.38;648053;216;31845;-78
2022/04/04 09:03:22;;;;;;;2.10;2.00;;;3.00;1.40;;;4.12;75.95;95482.77;644921;212;31621;-75
2022/04/04 09:06:10;;;;;;;2.20;1.60;;;5.60;1.40;;;5.84;64.26;95467.46;648700;216;31551;-78
2022/04/04 09:08:52;;;;;;;2.00;1.70;;;7.40;1.40;;;6.91;58.00;95461.11;648336;212;31530;-78
2022/04/04 09:11:33;;;;;;;2.17;1.70;;;8.70;1.40;;;6.73;55.68;95464.59;648709;216;31693;-79
2022/04/04 09:16:58;;;;;;;1.90;1.70;;;8.90;1.40;;;8.30;54.00;95459.94;648077;216;31593;-76
2022/04/04 09:19:46;;;;;;;2.90;1.40;;;9.60;1.40;;;8.33;51.21;95451.36;647068;216;31574;-79
2022/04/04 09:22:27;;;;;;;3.37;1.40;;;8.60;1.40;;;7.71;50.76;95451.80;643981;217;35968;-78
2022/04/04 09:25:09;;;;;;;3.22;2.28;;;8.50;1.40;;;8.17;51.87;95448.09;648622;212;42153;-78
2022/04/04 09:27:53;;;;;;;2.00;1.50;;;8.70;1.40;;;9.61;48.80;95442.87;645454;212;32209;-77
2022/04/04 09:30:41;;;;;;;1.50;1.40;;;9.00;1.40;;;9.36;50.48;95442.91;643063;215;31567;-77
2022/04/04 09:35:53;;;;;;;1.60;1.50;;;9.60;1.40;;;8.59;49.80;95450.28;648803;215;31605;-76
2022/04/04 09:38:36;;;;;;;2.08;1.90;;;7.30;1.40;;;8.09;49.99;95440.30;646629;212;40046;-76
2022/04/04 09:41:21;;;;;;;2.23;1.60;;;7.90;1.40;;;9.04;50.88;95437.22;647147;212;31589;-77
2022/04/04 09:44:03;;;;;;;2.35;1.67;;;8.40;1.40;;;8.21;47.59;95438.34;646509;216;31768;-76
2022/04/04 09:46:46;;;;;;;2.67;1.80;;;6.80;1.40;;;6.85;52.11;95433.31;647326;216;31554;-75
2022/04/04 09:49:34;;;;;;;2.83;1.60;;;6.60;1.40;;;7.72;55.70;95421.45;645671;216;31564;-76
2022/04/04 09:52:17;;;;;;;3.03;2.00;;;7.90;1.40;;;9.17;49.98;95417.73;647799;216;31547;-76
2022/04/04 09:54:59;;;;;;;2.00;1.60;;;10.30;1.40;;;10.10;52.90;95404.48;647640;212;31721;-76
2022/04/04 09:57:41;;;;;;;2.00;1.80;;;10.00;1.40;;;10.87;51.60;95399.17;646167;216;32223;-76
2022/04/04 10:02:58;;;;;;;4.07;2.00;;;10.30;1.40;;;9.40;53.07;95418.17;646187;212;31611;-76
2022/04/04 10:05:42;;;;;;;1.87;1.60;;;8.70;1.40;;;9.34;50.86;95408.81;647151;212;31719;-76
2022/04/04 10:11:02;;;;;;;2.95;1.90;;;8.00;1.40;;;8.34;54.44;95404.21;647355;216;31549;-76
2022/04/04 10:13:43;;;;;;;2.37;1.67;;;7.50;1.40;;;6.95;59.09;95411.16;645430;216;42577;-77
2022/04/04 10:16:25;;;;;;;2.30;2.00;;;6.10;1.40;;;6.53;59.86;95397.42;634521;217;42343;-74
2022/04/04 10:21:41;;;;;;;2.50;1.90;;;4.60;1.40;;;4.95;72.68;95392.20;646340;216;31596;-78
2022/04/04 10:24:23;;;;;;;2.23;2.00;;;3.90;1.40;;;7.04;70.01;95383.70;647949;212;31522;-77
2022/04/04 10:27:04;;;;;;;2.67;2.10;;;7.40;1.40;;;6.09;67.30;95374.58;620410;226;31878;-77
2022/04/04 10:29:48;;;;;;;2.15;1.95;;;5.70;1.40;;;6.90;66.33;95369.81;619398;223;32057;-77
2022/04/04 10:32:30;;;;;;;2.30;1.90;;;7.70;1.40;;;8.87;58.64;95356.58;647206;212;42194;-77
2022/04/04 10:36:04;;;;;;;2.60;2.25;;;10.00;1.40;;;10.05;54.21;95352.73;619571;222;31924;-76
2022/04/04 10:38:49;;;;;;;2.60;2.00;;;9.10;1.40;;;10.16;50.02;95340.31;620317;226;42517;-75
2022/04/04 10:41:32;;;;;;;2.67;2.47;;;10.40;1.40;;;9.16;49.98;95343.73;647843;212;31510;-76
2022/04/04 10:44:13;;;;;;;2.80;2.00;;;8.10;1.40;;;9.73;51.99;95328.70;647727;216;31553;-77
2022/04/04 10:46:54;;;;;;;3.08;2.47;;;10.40;1.40;;;9.61;51.66;95326.86;646697;212;35506;-76
2022/04/04 10:49:36;;;;;;;2.50;2.10;;;9.40;1.40;;;10.84;49.96;95327.00;648477;216;31622;-76
2022/04/04 10:52:19;;;;;;;3.62;2.60;;;10.50;1.40;;;11.24;47.86;95325.09;646819;216;42748;-77
2022/04/04 10:55:00;;;;;;;2.45;1.98;;;10.00;1.40;;;10.83;48.47;95319.37;647664;212;31561;-76
2022/04/04 10:57:42;;;;;;;3.40;2.33;;;10.40;1.40;;;11.20;50.42;95320.00;619959;226;31893;-75
2022/04/04 11:00:50;;;;;;;3.08;2.40;;;10.20;1.40;;;9.48;53.00;95323.80;646397;216;42204;-76
2022/04/04 11:03:36;;;;;;;2.33;2.12;;;9.00;1.40;;;9.99;52.50;95312.43;619508;226;33365;-77
2022/04/04 11:09:12;;;;;;;2.95;2.20;;;10.70;1.40;;;10.50;50.03;95305.10;620106;222;38117;-76
2022/04/04 11:11:55;;;;;;;3.80;2.28;;;9.80;1.40;;;9.62;50.44;95314.14;646878;212;31596;-76
2022/04/04 11:14:44;;;;;;;7.20;2.50;;;9.20;1.40;;;8.82;53.14;95310.55;619355;226;31903;-77
2022/04/04 11:17:30;;;;;;;3.28;2.30;;;8.90;1.40;;;9.30;48.99;95303.48;647268;216;36549;-76
2022/04/04 11:20:13;;;;;;;2.80;2.40;;;9.10;1.40;;;9.62;51.82;95293.63;647441;216;42723;-76
2022/04/04 11:22:55;;;;;;;3.30;2.22;;;9.60;1.40;;;10.05;51.13;95284.11;619466;226;42604;-76
2022/04/04 11:25:35;;;;;;;3.05;2.85;;;9.50;1.40;;;9.81;53.11;95279.49;646748;212;42258;-76
2022/04/04 11:28:18;;;;;;;2.78;2.28;;;9.70;1.40;;;9.22;54.02;95286.61;647309;213;35523;-76
2022/04/04 11:31:04;;;;;;;2.60;2.20;;;9.00;1.40;;;8.58;55.93;95280.71;646603;216;31727;-77
2022/04/04 11:35:52;;;;;;;2.90;2.37;;;6.90;1.40;;;7.65;62.85;95269.16;646779;216;31582;-76
2022/04/04 11:38:40;;;;;;;2.93;2.20;;;8.10;1.40;;;8.35;56.91;95272.50;648383;216;31546;-77
2022/04/04 11:41:22;;;;;;;2.40;2.20;;;8.20;1.40;;;8.63;56.43;95266.74;647153;212;31918;-75
2022/04/04 11:44:04;;;;;;;2.87;2.10;;;7.70;1.40;;;8.97;53.91;95261.75;647590;216;32206;-76
2022/04/04 11:46:46;;;;;;;3.50;3.12;;;8.40;1.40;;;8.87;55.52;95254.88;618657;226;32123;-77
2022/04/04 11:49:32;;;;;;;3.20;2.47;;;7.50;1.40;;;8.18;58.75;95262.62;647764;216;31669;-76
2022/04/04 11:54:55;;;;;;;3.67;2.50;;;7.70;1.40;;;9.33;57.73;95244.98;646176;212;31591;-75
2022/04/04 11:57:46;;;;;;;3.20;2.50;;;8.60;1.40;;;9.18;55.15;95246.44;646907;216;41989;-77
2022/04/04 12:00:30;;;;;;;3.83;2.60;;;7.50;1.40;;;9.37;57.94;95236.67;619980;222;43172;-76
2022/04/04 12:03:10;;;;;;;4.00;2.63;;;9.30;1.40;;;10.60;53.25;95239.59;647742;216;42348;-76
2022/04/04 12:05:53;;;;;;;3.90;2.97;;;8.70;1.40;;;9.92;54.64;95231.61;648508;212;32340;-78
2022/04/04 12:08:36;;;;;;;3.80;2.70;;;8.80;1.40;;;9.40;55.54;95222.32;635568;212;31769;-76
2022/04/04 12:11:16;;;;;;;3.20;2.90;;;9.20;1.40;;;10.70;58.43;95215.97;619208;226;31941;-77
2022/04/04 12:13:58;;;;;;;5.10;2.90;;;10.20;1.40;;;10.74;53.93;95214.23;647509;216;31608;-77
2022/04/04 12:16:39;;;;;;;4.00;3.00;;;9.80;1.40;;;10.99;55.43;95203.37;620703;222;32069;-76
2022/04/04 12:19:21;;;;;;;2.83;2.50;;;10.20;1.40;;;11.01;54.20;95194.14;620486;222;31915;-77
2022/04/04 12:24:54;;;;;;;3.90;2.90;;;10.30;1.40;;;10.79;57.61;95188.72;647768;212;32771;-79
2022/04/04 12:27:33;;;;;;;3.40;2.60;;;8.40;1.40;;;9.16;60.42;95191.05;647839;216;42187;-79
2022/04/04 12:30:15;;;;;;;3.70;3.40;;;7.50;1.40;;;7.21;70.87;95185.73;621713;226;32795;-78